Nearby METAR Reports

 

CYFC - Fredericton Airp, New Brunswick
Distance from station: E 14km
Updated: Mon, 23-Oct-2017 5:00pm ADT
Clear
Clear
 Wind from S
Wind: S 19 km/h
Temperature: 21°C
Dew Point: 10°C
Humidity: 50%
Barometer: 1023.4 hPa
Clouds: Clear
Visibility: 14 km
2017/10/23 20:00 CYFC 232000Z AUTO 19010KT 9SM CLR 21/10 A3022 RMK SLP234 DENSITY ALT 400FT
CYCX - Gagetown (can M, New Brunswick
Distance from station: E 22km
Updated: Mon, 23-Oct-2017 5:00pm ADT
Partly cloudy
Partly cloudy
 Wind from S
Wind: S 11 km/h
Temperature: 20°C
Dew Point: 10°C
Humidity: 53%
Barometer: 1023.7 hPa
Clouds: Partly cloudy
Visibility: 24 km
Cloud details: Partly cloudy 7315 m
2017/10/23 20:00 CYCX 232000Z 19006KT 15SM SCT240 20/10 A3023 RMK CI3 DA620FT FU DIST NE SLP239
 
CYQM - Moncton Airport, New Brunswick
Distance from station: ENE 159km
Updated: Mon, 23-Oct-2017 5:00pm ADT
Few Clouds
Few Clouds
 Wind from S
Wind: S 20 km/h
Temperature: 20°C
Dew Point: 10°C
Humidity: 53%
Barometer: 1023.4 hPa
Clouds: Few Clouds
Visibility: 24 km
Cloud details: Few Clouds 975 m
Few Clouds 7925 m
2017/10/23 20:00 CYQM 232000Z 19011KT 15SM FEW032 FEW260 20/10 A3022 RMK SC1CI1 SC TR SLP238 DENSITY ALT 600FT
CYSJ - Saint John, New Brunswick
Distance from station: SE 88km
Updated: Mon, 23-Oct-2017 5:00pm ADT
Mist, Overcast
Mist, Overcast
 Wind from S
Wind: S 19 km/h
Temperature: 12°C
Dew Point: 11°C
Humidity: 94%
Barometer: 1025.7 hPa
Summary: Mist
Clouds: Overcast
Visibility: 5 km
Cloud details: Overcast 61 m
2017/10/23 20:00 CYSJ 232000Z 19010KT 3SM BR OVC002 12/11 A3029 RMK SC8 SLP262
 
CWPE - Point Lepreau, New Brunswick
Distance from station: SSE 90km
Updated: Mon, 23-Oct-2017 5:00pm ADT

 Wind from SSW
Wind: SSW 9 km/h
Temperature: 13°C
Dew Point: 12°C
Humidity: 94%
2017/10/23 20:00 CWPE 232000Z AUTO 20005KT 13/12 RMK AO1 SLP256 T01270120 57013
CWSS - St. Stephen (mar, New Brunswick
Distance from station: SSW 85km
Updated: Mon, 23-Oct-2017 5:00pm ADT

 Wind from S
Wind: S 9 km/h
Temperature: 20°C
Dew Point: 9°C
Humidity: 49%
2017/10/23 20:00 CWSS 232000Z AUTO 19005KT 20/09 RMK AO1 SLP243 T02010092 56016
 
CYHZ - Halifax Intl Arp, Nova Scotia
Distance from station: ESE 273km
Updated: Mon, 23-Oct-2017 5:00pm ADT
Partly cloudy
Partly cloudy
 Wind from SW
Wind: SW 19 km/h
Temperature: 16°C
Dew Point: 12°C
Humidity: 77%
Barometer: 1026.4 hPa
Clouds: Partly cloudy
Visibility: 24 km
Cloud details: Few Clouds 457 m
Partly cloudy 7925 m
2017/10/23 20:00 CYHZ 232000Z 22010KT 15SM FEW015 SCT260 16/12 A3031 RMK SC2CI1 SLP269
CYAW - Shearwater(Can M, Nova Scotia
Distance from station: ESE 285km
Updated: Mon, 23-Oct-2017 4:11pm ADT
NOT Current
Overcast
Overcast
 Wind from S
Wind: S 13 km/h
Temperature: 16°C
Dew Point: 13°C
Humidity: 83%
Barometer: 1027.4 hPa
Clouds: Overcast
Visibility: 24 km
Cloud details: Overcast 488 m
2017/10/23 19:11 CYAW 231911Z 18007KT 15SM OVC016 16/13 A3034 RMK SC8 DA-29FT LAST OBS/NEXT 240900 UTC SLP276
 
CYZX - Greenwood (can M, Nova Scotia
Distance from station: SE 169km
Updated: Mon, 23-Oct-2017 5:00pm ADT
Clear
Clear
 Wind from W
Wind: W 13 km/h
Temperature: 17°C
Dew Point: 11°C
Humidity: 68%
Barometer: 1026.1 hPa
Clouds: Clear
Visibility: 24 km
2017/10/23 20:00 CYZX 232000Z 26007KT 15SM SKC 17/11 A3030 RMK WNDY HILL UNAVBL SLP262
CYQI - Yarmouth Airport, Nova Scotia
Distance from station: SSE 230km
Updated: Mon, 23-Oct-2017 5:00pm ADT
Few Clouds
Few Clouds
 Wind from WSW
Wind: WSW 11 km/h
Temperature: 17°C
Dew Point: 13°C
Humidity: 77%
Barometer: 1027.1 hPa
Clouds: Few Clouds
Visibility: 24 km
Cloud details: Few Clouds 457 m
Few Clouds 7620 m
2017/10/23 20:00 CYQI 232000Z 24006KT 200V260 15SM FEW015 FEW250 17/13 A3033 RMK CF1CI1 CF TR CI TR SLP273
 
KHUL - Houlton, Maine, USA
Distance from station: WNW 90km
Updated: Mon, 23-Oct-2017 4:53pm ADT
Clear
Clear
 Wind from SW
Wind: SW 11 km/h
Temperature: 18°C
Dew Point: 9°C
Humidity: 56%
Barometer: 1022.7 hPa
Clouds: Clear
Visibility: 16 km
2017/10/23 19:53 KHUL 231953Z AUTO 22006KT 10SM CLR 18/09 A3020 RMK AO2 SLP228 T01830089
KPQI - Presque Isle, Maine, USA
Distance from station: NW 137km
Updated: Mon, 23-Oct-2017 4:56pm ADT
Clear
Clear
 Wind from SE
Wind: SE 17 km/h
Temperature: 16°C
Dew Point: 9°C
Humidity: 63%
Barometer: 1022.4 hPa
Clouds: Clear
Visibility: 16 km
2017/10/23 19:56 KPQI 231956Z AUTO 14009KT 10SM CLR 16/09 A3019 RMK AO2 SLP268 T01560094
 
KCAR - Caribou, Maine, USA
Distance from station: NW 151km
Updated: Mon, 23-Oct-2017 4:54pm ADT
Clear
Clear
 Wind from SSE
Wind: SSE 13 km/h
Temperature: 16°C
Dew Point: 9°C
Humidity: 63%
Barometer: 1022 hPa
Clouds: Clear
Visibility: 16 km
2017/10/23 19:54 KCAR 231954Z AUTO 16007KT 10SM CLR 16/09 A3018 RMK AO2 SLP225 T01560094
KMLT - Millinocket, Maine, USA
Distance from station: W 157km
Updated: Mon, 23-Oct-2017 4:53pm ADT
Clear
Clear
 Wind from calm
Wind: Calm
Temperature: 17°C
Dew Point: 10°C
Humidity: 64%
Barometer: 1023.7 hPa
Clouds: Clear
Visibility: 16 km
2017/10/23 19:53 KMLT 231953Z AUTO 00000KT 10SM CLR 17/10 A3023 RMK AO2 SLP242 T01720100 TSNO
 
KBGR - Bangor, Maine, USA
Distance from station: SW 203km
Updated: Mon, 23-Oct-2017 4:53pm ADT
Mostly cloudy
Mostly cloudy
 Wind from S
Wind: S 17 km/h
Temperature: 18°C
Dew Point: 10°C
Humidity: 60%
Barometer: 1024 hPa
Clouds: Mostly cloudy
Visibility: 16 km
Cloud details: Mostly cloudy 7620 m
2017/10/23 19:53 KBGR 231953Z 18009KT 10SM BKN250 18/10 A3024 RMK AO2 SLP240 T01780100
KBHB - Bar Harbor, Maine, USA
Distance from station: SW 204km
Updated: Mon, 23-Oct-2017 4:56pm ADT
Clear
Clear
 Wind from SSW
Wind: SSW 17 km/h
Temperature: 14°C
Dew Point: 11°C
Humidity: 82%
Barometer: 1025.4 hPa
Clouds: Clear
Visibility: 16 km
2017/10/23 19:56 KBHB 231956Z AUTO 20009KT 10SM CLR 14/11 A3028 RMK AO2 SLP259 T01440111 PNO $
 
CWIY - St Leonard Autob, New Brunswick
Distance from station: NNW 166km
Updated: Sun, 05-Feb-2017 10:00am AST
NOT Current

 Wind from SE
Wind: SE 15 km/h
Temperature: -15°C
Wind Chill: -23°C
Dew Point: -16°C
Humidity: 92%
2017/02/05 14:00 CWIY 051400Z AUTO 14008KT M15/M16 RMK AO1 SLP145 T11511164 58018
CYSL - Saint Leonard Ar, New Brunswick
Distance from station: NNW 166km
Updated: Mon, 30-Jun-2014 5:00pm ADT
NOT Current
Haze, Partly cloudy
Haze, Partly cloudy
 Wind from W
Wind: W 9 km/h
Temperature: 30°C
Heat Index: 31°C
Dew Point: 17°C
Humidity: 46%
Barometer: 1009.8 hPa
Summary: Haze
Clouds: Partly cloudy
Visibility: 5 km
Cloud details: Partly cloudy 914 m
2014/06/30 20:00 CYSL 302000Z 28005KT 3SM HZ SCT030 30/17 A2982 RMK CU4 LAST OFFICIAL OBS/STATION CLOSING PERMANENTLY/ ANY OBS AFTER THIS IS NOT DONE BY CERTIFIED PERSON/ SLP097
 
CWVU - Brier Island(Aut, Nova Scotia
Distance from station: S 177km
Updated: Mon, 23-Oct-2017 5:00pm ADT

 Wind from SSE
Wind: SSE 15 km/h
Temperature: 13°C
Dew Point: 12°C
Humidity: 94%
2017/10/23 20:00 CWVU 232000Z AUTO 16008KT 13/12 RMK AO1 SOG 00 6010 SLP281 T01320120
CXNP - Nappan (auto), Nova Scotia
Distance from station: E 191km
Updated: Mon, 23-Oct-2017 5:00pm ADT

 Wind from W
Wind: W 11 km/h
Temperature: 15°C
Dew Point: 11°C
Humidity: 77%
2017/10/23 20:00 CXNP 232000Z AUTO 26006KT 15/11 RMK AO1 SLP257 T01530109 58012
 
CXKT - Kentville (autob, Nova Scotia
Distance from station: ESE 193km
Updated: Mon, 23-Oct-2017 5:00pm ADT

 Wind from WSW
Wind: WSW 9 km/h
Temperature: 20°C
Dew Point: 10°C
Humidity: 53%
2017/10/23 20:00 CXKT 232000Z AUTO 25005KT 20/10 RMK AO1 SOG 18 6015 SLP253 T02020102
CWKG - Kejimkujik (au8), Nova Scotia
Distance from station: SE 197km
Updated: Mon, 23-Oct-2017 5:00pm ADT

 Wind from W
Wind: W 9 km/h
Temperature: 19°C
Dew Point: 7°C
Humidity: 46%
2017/10/23 20:00 CWKG 232000Z AUTO 26005KT 19/07 RMK AO1 SLP265 T01890074 56012
 
KFVE - Frenchville, Maine, USA
Distance from station: NW 201km
Updated: Mon, 23-Oct-2017 4:53pm ADT
Clear
Clear
 Wind from SE
Wind: SE 15 km/h
Temperature: 14°C
Dew Point: 7°C
Humidity: 63%
Barometer: 1021.3 hPa
Clouds: Clear
Visibility: 16 km
2017/10/23 19:53 KFVE 231953Z AUTO 14008KT 10SM CLR 14/07 A3016 RMK AO2 SLP217 T01390072
CZBF - Bathurst Arpt(Aw, New Brunswick
Distance from station: NNE 208km
Updated: Mon, 23-Oct-2017 5:00pm ADT
Partly cloudy
Partly cloudy
 Wind from NE
Wind: NE 7 km/h
Temperature: 12°C
Dew Point: 4°C
Humidity: 58%
Barometer: 1022 hPa
Clouds: Partly cloudy
Visibility: 24 km
Cloud details: Few Clouds 3658 m
Few Clouds 6401 m
Partly cloudy 7315 m
2017/10/23 20:00 CZBF 232000Z 04004KT 360V080 15SM FEW120 FEW210 SCT240 12/04 A3018 RMK AC1CC1CI2 AC TR SLP223
 
CERM - Edmunston, New Brunswick
Distance from station: NW 213km
Updated: Mon, 23-Oct-2017 5:00pm ADT

 Wind from SSE
Wind: SSE 7 km/h
Temperature: 16°C
Dew Point: 8°C
Humidity: 59%
2017/10/23 20:00 CERM 232000Z AUTO 16004KT 16/08 RMK AO1 SLP217 T01580082 57022
KGNR - Greenville, Maine, USA
Distance from station: W 226km
Updated: Mon, 23-Oct-2017 4:56pm ADT

 Wind from SSE
Wind: SSE 15 km/h
Temperature: 16°C
Dew Point: 9°C
Humidity: 63%
Barometer: 1022.4 hPa
2017/10/23 19:56 KGNR 231956Z AUTO 16008KT 16/09 A3019 RMK AO1 SLP229 T01560089
 
CWSD - Summerside (auto, PEI
Distance from station: ENE 228km
Updated: Mon, 23-Oct-2017 5:00pm ADT

 Wind from SSW
Wind: SSW 20 km/h
Temperature: 16°C
Dew Point: 11°C
Humidity: 72%
2017/10/23 20:00 CWSD 232000Z AUTO 20011KT 16/11 RMK AO1 SOG 03 6024 SLP238 T01630111
K40B - Clayton Lake, Maine, USA
Distance from station: WNW 233km
Updated: Mon, 23-Oct-2017 5:16pm ADT

 Wind from varies
Wind: varies 6 km/h, Gust: 26 km/h
Temperature: 20°C
Dew Point: -24°C
Humidity: 4%
Barometer: 1020.7 hPa
2017/10/23 20:16 K40B 232016Z AUTO VRB03G14KT 20/M24 A3014 RMK AO1 SLP208 T01951238 57017
 
CZCR - Charlo Airport, New Brunswick
Distance from station: N 236km
Updated: Mon, 23-Oct-2017 5:00pm ADT

 Wind from E
Wind: E 4 km/h
Temperature: 13°C
Dew Point: 6°C
Humidity: 63%
2017/10/23 20:00 CZCR 232000Z AUTO 08002KT 13/06 RMK AO1 SLP222 T01290056 56023
CWNE - North Point (aut, Ontario
Distance from station: NE 246km
Updated: Mon, 23-Oct-2017 5:00pm ADT

 Wind from E
Wind: E 4 km/h
Temperature: 13°C
Dew Point: 9°C
Humidity: 77%
2017/10/23 20:00 CWNE 232000Z AUTO 10002KT 13/09 RMK AO1 SLP231 T01250088 58020
 
CXLB - Lunenburg, Nova Scotia
Distance from station: SE 250km
Updated: Mon, 23-Oct-2017 5:00pm ADT

 Wind from S
Wind: S 17 km/h
Temperature: 16°C
Dew Point: 13°C
Humidity: 83%
2017/10/23 20:00 CXLB 232000Z AUTO 19009KT 16/13 RMK AO1 SLP257 T01600132 56017
CZDB - Debert, Nova Scotia
Distance from station: E 255km
Updated: Mon, 23-Oct-2017 5:00pm ADT

 Wind from SW
Wind: SW 9 km/h
Temperature: 18°C
Dew Point: 10°C
Humidity: 60%
2017/10/23 20:00 CZDB 232000Z AUTO 22005KT 18/10 RMK AO1 SLP261 T01790098 56019
 
CWOC - New Carlisle1, Quebec
Distance from station: NNE 262km
Updated: Mon, 23-Oct-2017 5:00pm ADT

 Wind from NNW
Wind: NNW 9 km/h
Temperature: 14°C
Dew Point: 5°C
Humidity: 55%
2017/10/23 20:00 CWOC 232000Z AUTO 34005KT 14/05 RMK AO1 SLP221 T01390053 57022
CWWE - Western Head (ma, Nova Scotia
Distance from station: SE 264km
Updated: Mon, 23-Oct-2017 5:00pm ADT

 Wind from SSW
Wind: SSW 28 km/h
Temperature: 16°C
Dew Point: 13°C
Humidity: 83%
2017/10/23 20:00 CWWE 232000Z AUTO 20015KT 16/13 RMK AO1 PK WND 20019/1953 SLP267 T01570134 56014
 
KRKD - Rockland/Knox, Maine, USA
Distance from station: SW 274km
Updated: Mon, 23-Oct-2017 4:56pm ADT
Mostly cloudy
Mostly cloudy
 Wind from SSW
Wind: SSW 7 km/h
Temperature: 14°C
Dew Point: 12°C
Humidity: 88%
Barometer: 1025.1 hPa
Clouds: Mostly cloudy
Visibility: 16 km
Cloud details: Partly cloudy 274 m
Mostly cloudy 518 m
2017/10/23 19:56 KRKD 231956Z AUTO 20004KT 10SM SCT009 BKN017 14/12 A3027 RMK AO2 SLP253 T01390117
CAHR - Harrington Cda, Ontario
Distance from station: ENE 277km
Updated: Mon, 23-Oct-2017 5:00pm ADT

 Wind from S
Wind: S 13 km/h
Temperature: 15°C
Dew Point: 9°C
Humidity: 68%
2017/10/23 20:00 CAHR 232000Z AUTO 18007KT 15/09 RMK AO1 SLP245 T01480089 56019
 
KWVL - Waterville, Maine, USA
Distance from station: WSW 277km
Updated: Mon, 23-Oct-2017 4:56pm ADT
Clear
Clear
 Wind from varies
Wind: varies 11 km/h
Temperature: 18°C
Dew Point: 10°C
Humidity: 60%
Barometer: 1023 hPa
Clouds: Clear
Visibility: 16 km
2017/10/23 19:56 KWVL 231956Z AUTO VRB06KT 10SM CLR 18/10 A3021 RMK AO2 SLP257 T01830100
CYYG - Charlottetown Ar, PEI
Distance from station: E 280km
Updated: Mon, 23-Oct-2017 5:00pm ADT
Partly cloudy
Partly cloudy
 Wind from S
Wind: S 15 km/h
Temperature: 14°C
Dew Point: 9°C
Humidity: 72%
Barometer: 1024.7 hPa
Clouds: Partly cloudy
Visibility: 24 km
Cloud details: Partly cloudy 8534 m
2017/10/23 20:00 CYYG 232000Z 18008KT 15SM SCT280 14/09 A3026 RMK CI3 SLP250
 
CXMI - Mcnabs Island, Nova Scotia
Distance from station: ESE 284km
Updated: Mon, 23-Oct-2017 5:00pm ADT

 Wind from SSW
Wind: SSW 17 km/h
Temperature: 16°C
Dew Point: 13°C
Humidity: 83%
2017/10/23 20:00 CXMI 232000Z AUTO 21009KT 16/13 RMK AO1 T01620126
CWZS - Amqui, Quebec
Distance from station: N 296km
Updated: Mon, 23-Oct-2017 5:00pm ADT

 Wind from SSE
Wind: SSE 13 km/h
Temperature: 15°C
Dew Point: 7°C
Humidity: 59%
2017/10/23 20:00 CWZS 232000Z AUTO 15007KT 15/07 RMK AO1 SLP209 T01540068 56019
 
KAUG - Augusta, Maine, USA
Distance from station: SW 298km
Updated: Mon, 23-Oct-2017 4:53pm ADT
Clear
Clear
 Wind from SSE
Wind: SSE 15 km/h
Temperature: 16°C
Dew Point: 11°C
Humidity: 72%
Barometer: 1024.4 hPa
Clouds: Clear
Visibility: 16 km
2017/10/23 19:53 KAUG 231953Z AUTO 16008KT 10SM CLR 16/11 A3025 RMK AO2 SLP246 T01560106
CWST - La Pocatiere, Quebec
Distance from station: NW 303km
Updated: Mon, 23-Oct-2017 5:00pm ADT

 Wind from NNW
Wind: NNW 6 km/h
Temperature: 13°C
Dew Point: 6°C
Humidity: 63%
2017/10/23 20:00 CWST 232000Z AUTO 34003KT 13/06 RMK AO1 SLP193 T01300062 56020
 
CWNH - Riviere Du Loup, Quebec
Distance from station: NW 304km
Updated: Mon, 23-Oct-2017 5:00pm ADT

 Wind from NNW
Wind: NNW 2 km/h
Temperature: 11°C
Dew Point: 5°C
Humidity: 67%
2017/10/23 20:00 CWNH 232000Z AUTO 33001KT 11/05 RMK AO1 SLP200 T01140051 58017
CWBK - Caribou Point(Ma, Nova Scotia
Distance from station: E 312km
Updated: Mon, 23-Oct-2017 5:00pm ADT

 Wind from SW
Wind: SW 9 km/h
Temperature: 18°C
Dew Point: 10°C
Humidity: 60%
2017/10/23 20:00 CWBK 232000Z AUTO 23005KT 18/10 RMK AO1 SLP250 T01800095 56022
 
CWHV - Beauceville, Quebec
Distance from station: W 317km
Updated: Mon, 23-Oct-2017 5:00pm ADT

 Wind from ESE
Wind: ESE 6 km/h
Temperature: 23°C
Dew Point: 6°C
Humidity: 33%
2017/10/23 20:00 CWHV 232000Z AUTO 11003KT 23/06 RMK AO1 SLP198 T02270057 56021
KIWI - Wiscasset, Maine, USA
Distance from station: SW 318km
Updated: Mon, 23-Oct-2017 5:13pm ADT
Partly cloudy
Partly cloudy
 Wind from S
Wind: S 7 km/h
Temperature: 15°C
Dew Point: 12°C
Humidity: 82%
Barometer: 1025.4 hPa
Clouds: Partly cloudy
Visibility: 16 km
Cloud details: Partly cloudy 396 m
2017/10/23 20:13 KIWI 232013Z AUTO 19004KT 10SM SCT013 15/12 A3028 RMK AO2 T01500122